Harbin, China
Current Conditions -  °F | °C
As of 5:00 PM on Saturday 29 Nov 2014 (Local Time) from ZYHB Reporting Station
Smoke Smoke  
Wind Chill: 24°   Ceiling: Unl
Heat Index: 32°   Visibility: 1.8mi
Dew Point: 18°   Wind: 9mph
Humidity: 55%   Direction: 140°SE
Pressure: 30.03"   Gusts: NA
Location:  45.75°N, 126.65°E
Report Text: ZYHB 290900Z 14004MPS 3000 FU NSC M00/M08 Q1017 BECMG TL10302500
Loading
Personal Weather Stations






























Interactive Weather Map New forecast layout! Learn more

10-Day Weather Forecast

Advertisements
Track Severe Weather on mobile